createdAt,value
2019-02-21T00:04:17.830Z,31.43
2019-02-21T00:09:13.606Z,31.73
2019-02-21T00:14:09.504Z,29.73
2019-02-21T00:19:05.327Z,30.80
2019-02-21T00:24:01.305Z,32.93
2019-02-21T00:28:57.226Z,33.50
2019-02-21T00:33:53.101Z,30.43
2019-02-21T00:38:48.883Z,31.37
2019-02-21T00:43:45.870Z,35.00
2019-02-21T00:48:41.726Z,34.63
2019-02-21T00:53:37.610Z,31.93
2019-02-21T00:58:46.880Z,34.17
2019-02-21T01:03:42.802Z,36.33
2019-02-21T01:08:38.644Z,34.50
2019-02-21T01:13:34.546Z,34.83
2019-02-21T01:18:32.887Z,31.80
2019-02-21T01:23:30.195Z,35.87
2019-02-21T01:28:25.985Z,35.70
2019-02-21T01:33:24.573Z,39.47
2019-02-21T01:38:20.479Z,42.80
2019-02-21T01:43:16.264Z,37.40
2019-02-21T01:48:13.793Z,36.20
2019-02-21T01:53:13.536Z,32.57
2019-02-21T01:58:11.812Z,31.60
2019-02-21T02:03:12.417Z,32.17
2019-02-21T02:08:13.044Z,31.83
2019-02-21T02:13:23.691Z,30.40
2019-02-21T02:18:09.440Z,32.50
2019-02-21T02:23:05.378Z,36.30
2019-02-21T02:28:10.220Z,32.63
2019-02-21T02:33:09.051Z,28.43
2019-02-21T02:38:06.683Z,32.13
2019-02-21T02:43:02.493Z,29.83
2019-02-21T02:48:04.317Z,34.50
2019-02-21T02:53:00.211Z,30.33
2019-02-21T02:57:58.896Z,30.50
2019-02-21T03:02:54.778Z,33.60
2019-02-21T03:07:55.524Z,32.17
2019-02-21T03:12:54.838Z,33.60
2019-02-21T03:17:51.011Z,36.43
2019-02-21T03:22:47.391Z,41.60
2019-02-21T03:27:43.351Z,34.93
2019-02-21T03:32:39.331Z,40.67
2019-02-21T03:37:35.141Z,33.37
2019-02-21T03:42:31.009Z,36.20
2019-02-21T03:47:26.914Z,36.53
2019-02-21T03:52:22.731Z,49.40
2019-02-21T03:57:18.607Z,36.07
2019-02-21T04:02:14.540Z,29.47
2019-02-21T04:07:10.403Z,34.70
2019-02-21T04:12:06.217Z,45.97
2019-02-21T04:17:02.064Z,43.60
2019-02-21T04:21:57.893Z,65.40
2019-02-21T04:26:53.736Z,44.17
2019-02-21T04:31:49.529Z,42.20
2019-02-21T04:36:45.341Z,35.60
2019-02-21T04:41:41.274Z,48.57
2019-02-21T04:46:37.164Z,39.10
2019-02-21T04:51:33.112Z,34.70
2019-02-21T04:56:30.499Z,47.33
2019-02-21T05:01:26.400Z,30.97
2019-02-21T05:06:22.244Z,34.40
2019-02-21T05:11:18.196Z,31.73
2019-02-21T05:16:14.264Z,50.53
2019-02-21T05:21:10.072Z,45.40
2019-02-21T05:26:06.317Z,34.43
2019-02-21T05:31:20.977Z,64.27
2019-02-21T05:36:53.673Z,42.17
2019-02-21T05:42:08.322Z,31.33
2019-02-21T05:47:28.929Z,46.77
2019-02-21T05:52:36.063Z,55.43
2019-02-21T05:58:00.006Z,52.50
2019-02-21T06:03:07.673Z,32.63
2019-02-21T06:08:10.208Z,32.57
2019-02-21T06:13:36.824Z,32.90
2019-02-21T06:18:58.430Z,29.83
2019-02-21T06:24:04.247Z,31.13
2019-02-21T06:29:06.385Z,28.63
2019-02-21T06:34:02.358Z,29.63
2019-02-21T06:38:58.348Z,32.90
2019-02-21T06:43:56.845Z,27.83
2019-02-21T06:48:54.385Z,41.23
2019-02-21T06:53:50.632Z,56.27
2019-02-21T06:58:47.835Z,33.97
2019-02-21T07:03:43.675Z,40.90
2019-02-21T07:08:40.206Z,34.97
2019-02-21T07:13:40.464Z,34.63
2019-02-21T07:18:40.843Z,36.80
2019-02-21T07:23:43.541Z,29.93
2019-02-21T07:28:34.296Z,28.90
2019-02-21T07:33:30.317Z,36.13
2019-02-21T07:38:26.342Z,33.90
2019-02-21T07:43:25.980Z,28.70
2019-02-21T07:48:24.154Z,29.47
2019-02-21T07:53:20.689Z,24.53
2019-02-21T07:58:19.680Z,29.20
2019-02-21T08:03:15.626Z,25.47
2019-02-21T08:08:11.688Z,25.40
2019-02-21T08:13:09.602Z,29.30
2019-02-21T08:18:07.315Z,37.10
2019-02-21T08:23:03.290Z,39.90
2019-02-21T08:27:59.134Z,25.50
2019-02-21T08:33:29.592Z,26.57
2019-02-21T08:38:26.708Z,29.40
2019-02-21T08:43:23.234Z,24.93
2019-02-21T08:48:26.910Z,37.13
2019-02-21T08:53:22.801Z,32.63
2019-02-21T08:58:18.997Z,27.47
2019-02-21T09:03:17.908Z,30.23
2019-02-21T09:08:12.484Z,29.40
2019-02-21T09:13:08.509Z,29.97
2019-02-21T09:18:05.002Z,24.53
2019-02-21T09:23:01.672Z,30.70
2019-02-21T09:27:59.779Z,31.57
2019-02-21T09:32:55.094Z,29.93
2019-02-21T09:37:51.017Z,32.13
2019-02-21T09:42:46.852Z,34.93
2019-02-21T09:47:42.731Z,36.20
2019-02-21T09:52:38.613Z,36.07
2019-02-21T09:57:34.415Z,39.73
2019-02-21T10:02:30.362Z,40.43
2019-02-21T10:07:26.318Z,40.63
2019-02-21T10:12:22.430Z,41.37
2019-02-21T10:17:18.455Z,49.80
2019-02-21T10:22:14.390Z,49.07
2019-02-21T10:27:10.314Z,51.07
2019-02-21T10:32:06.130Z,47.80
2019-02-21T10:37:01.972Z,55.07
2019-02-21T10:41:57.878Z,43.93
2019-02-21T10:46:53.746Z,40.00
2019-02-21T10:51:49.595Z,43.60
2019-02-21T10:56:45.578Z,40.40
2019-02-21T11:01:41.462Z,34.13
2019-02-21T11:06:37.398Z,36.03
2019-02-21T11:11:34.466Z,35.10
2019-02-21T11:16:30.367Z,32.63
2019-02-21T11:21:26.872Z,35.80
2019-02-21T11:26:23.045Z,42.10
2019-02-21T11:31:19.082Z,41.83
2019-02-21T11:36:15.108Z,27.50
2019-02-21T11:41:11.198Z,36.30
2019-02-21T11:46:08.474Z,37.20
2019-02-21T11:51:04.409Z,35.43
2019-02-21T11:56:00.349Z,43.17
2019-02-21T12:00:56.317Z,38.70
2019-02-21T12:05:52.090Z,36.07
2019-02-21T12:10:50.669Z,37.93
2019-02-21T12:15:45.948Z,38.10
2019-02-21T12:20:42.011Z,37.17
2019-02-21T12:25:37.890Z,36.07
2019-02-21T12:30:33.836Z,37.20
2019-02-21T12:35:30.323Z,38.10
2019-02-21T12:40:26.451Z,35.77
2019-02-21T12:45:23.855Z,40.20
2019-02-21T12:50:19.809Z,44.17
2019-02-21T12:55:26.910Z,38.17
2019-02-21T13:00:19.742Z,36.00
2019-02-21T13:05:15.735Z,40.23
2019-02-21T13:10:14.243Z,39.20
2019-02-21T13:15:12.148Z,36.30
2019-02-21T13:20:11.159Z,44.20
2019-02-21T13:25:07.783Z,41.23
2019-02-21T13:30:05.704Z,39.40
2019-02-21T13:35:01.542Z,39.00
2019-02-21T13:39:57.375Z,39.93
2019-02-21T13:44:53.276Z,42.97
2019-02-21T13:49:49.057Z,39.47
2019-02-21T13:54:44.885Z,37.13
2019-02-21T13:59:42.373Z,36.90
2019-02-21T14:04:38.232Z,34.17
2019-02-21T14:09:34.021Z,32.17
2019-02-21T14:14:30.933Z,37.77
2019-02-21T14:19:26.842Z,36.67
2019-02-21T14:24:22.727Z,37.80
2019-02-21T14:29:18.516Z,35.73
2019-02-21T14:34:15.530Z,39.33
2019-02-21T14:39:11.957Z,33.83
2019-02-21T14:44:07.984Z,36.37
2019-02-21T14:49:03.836Z,28.20
2019-02-21T14:53:59.730Z,32.53
2019-02-21T14:58:55.626Z,29.53
2019-02-21T15:03:51.601Z,28.67
2019-02-21T15:08:47.817Z,29.70
2019-02-21T15:13:43.635Z,27.10
2019-02-21T15:18:42.367Z,24.40
2019-02-21T15:23:38.309Z,26.53
2019-02-21T15:28:34.139Z,22.63
2019-02-21T15:33:29.976Z,27.43
2019-02-21T15:44:37.312Z,24.27
2019-02-21T15:49:33.140Z,20.50
2019-02-21T15:54:29.201Z,20.03
2019-02-21T15:59:25.034Z,16.83
2019-02-21T16:04:21.057Z,19.33
2019-02-21T16:09:17.614Z,19.20
2019-02-21T16:14:13.476Z,22.53
2019-02-21T16:19:09.453Z,22.60
2019-02-21T16:24:08.615Z,23.30
2019-02-21T16:29:04.613Z,19.43
2019-02-21T16:34:00.613Z,25.93
2019-02-21T16:38:58.696Z,23.27
2019-02-21T16:43:54.550Z,20.53
2019-02-21T16:48:50.414Z,23.77
2019-02-21T16:53:46.218Z,31.80
2019-02-21T16:58:42.961Z,28.53
2019-02-21T17:03:38.897Z,33.63
2019-02-21T17:08:34.757Z,31.00
2019-02-21T17:13:30.959Z,31.53
2019-02-21T17:18:26.885Z,34.57
2019-02-21T17:23:23.270Z,28.80
2019-02-21T17:28:22.494Z,31.43
2019-02-21T17:33:18.453Z,28.37
2019-02-21T17:38:14.585Z,26.23
2019-02-21T17:43:11.664Z,28.47
2019-02-21T17:48:07.571Z,27.13
2019-02-21T17:53:03.616Z,25.50
2019-02-21T17:57:59.440Z,25.30
2019-02-21T18:02:55.300Z,25.60
2019-02-21T18:07:54.219Z,26.57
2019-02-21T18:12:50.454Z,22.47
2019-02-21T18:17:46.423Z,24.97
2019-02-21T18:22:42.410Z,23.60
2019-02-21T18:27:38.437Z,29.37
2019-02-21T18:32:34.516Z,26.60
2019-02-21T18:37:35.230Z,25.63
2019-02-21T18:42:32.641Z,28.17
2019-02-21T18:47:28.540Z,26.67
2019-02-21T18:52:24.389Z,31.93
2019-02-21T18:57:20.965Z,44.27
2019-02-21T19:02:19.822Z,42.30
2019-02-21T19:07:16.698Z,31.47
2019-02-21T19:12:13.762Z,31.53
2019-02-21T19:17:11.451Z,28.83
2019-02-21T19:22:07.510Z,35.13
2019-02-21T19:27:03.565Z,26.53
2019-02-21T19:32:01.674Z,39.30
2019-02-21T19:36:57.811Z,33.93
2019-02-21T19:41:53.830Z,36.67
2019-02-21T19:46:50.057Z,36.30
2019-02-21T19:51:46.191Z,33.77
2019-02-21T19:56:42.140Z,34.03
2019-02-21T20:01:38.330Z,29.90
2019-02-21T20:06:34.998Z,32.45
2019-02-21T20:11:30.992Z,30.87
2019-02-21T20:16:26.890Z,27.53
2019-02-21T20:21:29.182Z,23.53
2019-02-21T20:26:25.179Z,27.60
2019-02-21T20:31:21.069Z,27.27
2019-02-21T20:36:16.994Z,28.67
2019-02-21T20:41:12.985Z,29.17
2019-02-21T20:46:08.923Z,25.00
2019-02-21T20:51:04.811Z,20.57
2019-02-21T20:56:00.701Z,23.80
2019-02-21T21:00:57.605Z,21.70
2019-02-21T21:05:53.542Z,21.10
2019-02-21T21:10:49.502Z,31.10
2019-02-21T21:15:45.384Z,25.73
2019-02-21T21:20:41.320Z,29.43
2019-02-21T21:25:37.144Z,24.03
2019-02-21T21:30:33.356Z,26.00
2019-02-21T21:35:29.239Z,24.53
2019-02-21T21:40:25.290Z,24.03
2019-02-21T21:45:21.861Z,28.27
2019-02-21T21:50:18.601Z,23.63
2019-02-21T21:55:14.658Z,21.87
2019-02-21T22:00:17.863Z,26.90
2019-02-21T22:05:13.479Z,28.03
2019-02-21T22:10:10.409Z,23.90
2019-02-21T22:15:06.860Z,26.67
2019-02-21T22:20:02.718Z,25.00
2019-02-21T22:24:58.841Z,30.97
2019-02-21T22:29:54.857Z,23.37
2019-02-21T22:34:52.809Z,27.30
2019-02-21T22:39:48.772Z,20.13
2019-02-21T22:44:47.010Z,22.23
2019-02-21T22:49:44.105Z,21.60
2019-02-21T22:54:40.225Z,22.73
2019-02-21T22:59:36.259Z,19.63
2019-02-21T23:05:41.944Z,21.17
2019-02-21T23:10:37.803Z,26.57
2019-02-21T23:15:35.656Z,24.60
2019-02-21T23:20:31.211Z,21.37
2019-02-21T23:25:34.552Z,27.80
2019-02-21T23:30:34.729Z,25.50
2019-02-21T23:35:32.804Z,24.50
2019-02-21T23:40:29.879Z,21.63
2019-02-21T23:45:26.859Z,18.00
2019-02-21T23:50:24.273Z,22.57
2019-02-21T23:55:22.345Z,21.57
